createdAt,value
2023-02-19T00:01:13.448Z,101821.04
2023-02-19T00:04:46.257Z,101827.15
2023-02-19T00:08:15.123Z,101828.48
2023-02-19T00:11:44.050Z,101834.84
2023-02-19T00:15:12.789Z,101835.00
2023-02-19T00:18:41.723Z,101829.09
2023-02-19T00:22:10.996Z,101842.38
2023-02-19T00:25:39.666Z,101847.88
2023-02-19T00:29:00.922Z,101855.52
2023-02-19T00:32:29.824Z,101865.58
2023-02-19T00:35:58.849Z,101882.79
2023-02-19T00:39:27.782Z,101884.92
2023-02-19T00:42:56.563Z,101887.92
2023-02-19T00:46:25.611Z,101888.92
2023-02-19T00:49:54.430Z,101891.89
2023-02-19T00:53:23.117Z,101886.64
2023-02-19T00:56:51.844Z,101886.03
2023-02-19T01:00:13.586Z,101890.07
2023-02-19T01:03:25.293Z,101877.48
2023-02-19T01:06:54.324Z,101870.90
2023-02-19T01:10:23.161Z,101875.86
2023-02-19T01:13:52.326Z,101879.94
2023-02-19T01:17:11.898Z,101881.42
2023-02-19T01:20:26.355Z,101884.05
2023-02-19T01:23:55.057Z,101881.60
2023-02-19T01:27:24.138Z,101876.77
2023-02-19T01:30:53.975Z,101894.38
2023-02-19T01:34:23.631Z,101905.91
2023-02-19T01:37:53.267Z,101913.94
2023-02-19T01:41:22.522Z,101921.93
2023-02-19T01:44:57.607Z,101930.80
2023-02-19T01:48:26.964Z,101932.55
2023-02-19T01:51:59.055Z,101942.66
2023-02-19T01:55:27.749Z,101945.86
2023-02-19T01:58:56.957Z,101940.61
2023-02-19T02:02:24.917Z,101941.41
2023-02-19T02:05:59.938Z,101953.05
2023-02-19T02:09:26.616Z,101960.77
2023-02-19T02:12:55.508Z,101953.42
2023-02-19T02:16:24.464Z,101956.80
2023-02-19T02:20:04.977Z,101965.31
2023-02-19T02:23:39.483Z,101971.19
2023-02-19T02:27:06.905Z,101981.98
2023-02-19T02:30:35.576Z,102000.66
2023-02-19T02:34:05.030Z,101999.17
2023-02-19T02:37:34.394Z,101997.14
2023-02-19T02:41:03.331Z,101996.61
2023-02-19T02:44:22.857Z,101997.12
2023-02-19T02:48:03.970Z,101979.35
2023-02-19T02:51:36.865Z,101996.80
2023-02-19T02:55:24.419Z,101998.95
2023-02-19T02:58:53.576Z,101976.06
2023-02-19T03:02:38.556Z,101981.45
2023-02-19T03:06:13.300Z,101991.89
2023-02-19T03:09:41.934Z,101996.35
2023-02-19T03:13:15.229Z,101999.90
2023-02-19T03:16:43.007Z,102004.88
2023-02-19T03:20:11.895Z,102005.98
2023-02-19T03:23:41.174Z,102015.55
2023-02-19T03:27:10.329Z,102022.84
2023-02-19T03:30:39.720Z,102024.91
2023-02-19T03:34:11.875Z,102026.88
2023-02-19T03:37:41.189Z,102033.85
2023-02-19T03:41:10.621Z,102040.64
2023-02-19T03:44:39.988Z,102051.00
2023-02-19T03:48:27.458Z,102054.14
2023-02-19T03:51:58.939Z,102059.27
2023-02-19T03:55:33.546Z,102066.78
2023-02-19T03:59:14.115Z,102068.32
2023-02-19T04:02:42.946Z,102074.29
2023-02-19T04:06:17.847Z,102069.14
2023-02-19T04:09:47.428Z,102066.80
2023-02-19T04:13:16.609Z,102062.99
2023-02-19T04:16:45.861Z,102069.43
2023-02-19T04:20:15.391Z,102078.31
2023-02-19T04:23:44.726Z,102085.54
2023-02-19T04:27:01.083Z,102082.96
2023-02-19T04:30:30.461Z,102086.83
2023-02-19T04:33:59.660Z,102089.07
2023-02-19T04:37:29.135Z,102094.69
2023-02-19T04:40:58.243Z,102105.45
2023-02-19T04:44:26.930Z,102103.54
2023-02-19T04:47:55.779Z,102098.95
2023-02-19T04:51:24.632Z,102099.46
2023-02-19T04:54:54.039Z,102106.52
2023-02-19T04:58:23.026Z,102103.98
2023-02-19T05:01:54.564Z,102109.98
2023-02-19T05:05:23.373Z,102112.80
2023-02-19T05:08:50.706Z,102120.71
2023-02-19T05:12:19.511Z,102131.08
2023-02-19T05:15:48.317Z,102148.38
2023-02-19T05:19:17.063Z,102144.95
2023-02-19T05:22:45.918Z,102146.30
2023-02-19T05:26:15.390Z,102158.69
2023-02-19T05:29:44.325Z,102161.02
2023-02-19T05:33:12.307Z,102158.58
2023-02-19T05:36:44.560Z,102159.54
2023-02-19T05:40:06.115Z,102151.08
2023-02-19T05:43:34.966Z,102143.81
2023-02-19T05:47:04.003Z,102143.15
2023-02-19T05:50:33.895Z,102145.17
2023-02-19T05:54:03.758Z,102142.67
2023-02-19T05:57:35.600Z,102143.75
2023-02-19T06:01:04.587Z,102128.23
2023-02-19T06:04:33.544Z,102132.14
2023-02-19T06:08:04.275Z,102129.98
2023-02-19T06:11:33.694Z,102134.90
2023-02-19T06:15:02.799Z,102137.14
2023-02-19T06:18:32.062Z,102142.36
2023-02-19T06:22:04.563Z,102136.46
2023-02-19T06:25:33.777Z,102121.42
2023-02-19T06:29:02.945Z,102119.20
2023-02-19T06:32:33.114Z,102123.40
2023-02-19T06:35:55.436Z,102117.60
2023-02-19T06:39:25.436Z,102110.13
2023-02-19T06:42:56.219Z,102114.62
2023-02-19T06:46:15.759Z,102123.81
2023-02-19T06:49:45.276Z,102118.98
2023-02-19T06:53:14.485Z,102124.08
2023-02-19T06:56:46.146Z,102126.70
2023-02-19T07:00:16.238Z,102128.56
2023-02-19T07:03:45.461Z,102137.38
2023-02-19T07:07:14.561Z,102131.63
2023-02-19T07:10:36.663Z,102134.80
2023-02-19T07:14:05.524Z,102144.70
2023-02-19T07:17:34.703Z,102151.29
2023-02-19T07:21:03.383Z,102168.14
2023-02-19T07:24:31.451Z,102171.02
2023-02-19T07:27:52.983Z,102175.27
2023-02-19T07:31:22.444Z,102179.52
2023-02-19T07:34:51.838Z,102184.33
2023-02-19T07:38:20.506Z,102167.96
2023-02-19T07:41:58.084Z,102163.13
2023-02-19T07:45:26.922Z,102183.43
2023-02-19T07:48:56.201Z,102192.77
2023-02-19T07:52:25.330Z,102195.86
2023-02-19T07:55:47.339Z,102195.10
2023-02-19T07:59:16.787Z,102195.91
2023-02-19T08:02:43.969Z,102192.95
2023-02-19T08:06:01.781Z,102191.29
2023-02-19T08:09:31.169Z,102200.21
2023-02-19T08:12:58.851Z,102201.48
2023-02-19T08:16:42.014Z,102198.95
2023-02-19T08:20:12.422Z,102194.94
2023-02-19T08:23:41.670Z,102190.13
2023-02-19T08:27:10.983Z,102194.78
2023-02-19T08:30:40.186Z,102191.48
2023-02-19T08:34:09.560Z,102200.05
2023-02-19T08:37:38.869Z,102203.36
2023-02-19T08:41:08.636Z,102204.84
2023-02-19T08:44:38.294Z,102208.63
2023-02-19T08:48:07.849Z,102219.97
2023-02-19T08:51:37.258Z,102215.27
2023-02-19T08:55:06.713Z,102203.60
2023-02-19T08:58:36.101Z,102193.67
2023-02-19T09:05:47.326Z,102190.36
2023-02-19T09:09:17.005Z,102194.54
2023-02-19T09:12:36.954Z,102205.58
2023-02-19T09:16:06.285Z,102204.23
2023-02-19T09:19:35.524Z,102211.59
2023-02-19T09:23:04.703Z,102216.30
2023-02-19T09:26:33.634Z,102231.59
2023-02-19T09:29:53.173Z,102249.22
2023-02-19T09:33:22.587Z,102246.55
2023-02-19T09:36:52.119Z,102231.96
2023-02-19T09:40:21.473Z,102247.27
2023-02-19T09:43:45.997Z,102242.84
2023-02-19T09:47:18.051Z,102237.98
2023-02-19T09:50:49.876Z,102234.73
2023-02-19T09:54:22.058Z,102246.69
2023-02-19T09:57:53.530Z,102243.85
2023-02-19T10:01:25.087Z,102254.56
2023-02-19T10:04:46.936Z,102258.88
2023-02-19T10:08:22.247Z,102254.11
2023-02-19T10:11:51.599Z,102239.27
2023-02-19T10:15:41.550Z,102235.27
2023-02-19T10:19:10.968Z,102220.26
2023-02-19T10:22:40.167Z,102212.13
2023-02-19T10:26:12.023Z,102196.05
2023-02-19T10:29:44.434Z,102197.73
2023-02-19T10:33:19.224Z,102199.02
2023-02-19T10:36:54.671Z,102175.86
2023-02-19T10:40:39.545Z,102159.25
2023-02-19T10:44:09.319Z,102181.89
2023-02-19T10:47:37.955Z,102217.33
2023-02-19T10:51:13.657Z,102209.25
2023-02-19T10:54:49.305Z,102246.08
2023-02-19T10:58:18.933Z,102234.39
2023-02-19T11:01:54.287Z,102240.37
2023-02-19T11:05:23.646Z,102255.85
2023-02-19T11:08:53.069Z,102242.23
2023-02-19T11:12:31.549Z,102237.87
2023-02-19T11:16:03.121Z,102234.26
2023-02-19T11:19:35.691Z,102241.50
2023-02-19T11:23:13.805Z,102239.13
2023-02-19T11:26:43.430Z,102224.36
2023-02-19T11:30:15.869Z,102207.05
2023-02-19T11:33:44.973Z,102198.63
2023-02-19T11:37:23.052Z,102189.83
2023-02-19T11:40:52.297Z,102189.66
2023-02-19T11:44:40.024Z,102181.28
2023-02-19T11:48:18.061Z,102184.94
2023-02-19T11:51:51.490Z,102185.07
2023-02-19T11:55:33.217Z,102193.06
2023-02-19T11:59:03.472Z,102204.77
2023-02-19T12:02:41.801Z,102211.08
2023-02-19T12:06:13.865Z,102206.16
2023-02-19T12:09:52.680Z,102197.63
2023-02-19T12:13:45.473Z,102202.83
2023-02-19T12:17:25.959Z,102225.00
2023-02-19T12:21:03.722Z,102234.10
2023-02-19T12:24:30.476Z,102231.84
2023-02-19T12:28:16.897Z,102237.35
2023-02-19T12:31:49.054Z,102218.98
2023-02-19T12:35:20.777Z,102205.56
2023-02-19T12:39:04.893Z,102206.35
2023-02-19T12:42:35.836Z,102217.67
2023-02-19T12:46:16.762Z,102218.05
2023-02-19T12:49:48.303Z,102216.17
2023-02-19T12:53:17.263Z,102223.85
2023-02-19T12:56:46.207Z,102213.63
2023-02-19T13:00:24.521Z,102218.52
2023-02-19T13:03:56.964Z,102214.39
2023-02-19T13:07:25.882Z,102227.00
2023-02-19T13:11:13.066Z,102227.34
2023-02-19T13:14:43.328Z,102229.02
2023-02-19T13:18:27.072Z,102229.11
2023-02-19T13:21:54.708Z,102221.33
2023-02-19T13:25:30.134Z,102230.16
2023-02-19T13:29:08.044Z,102228.45
2023-02-19T13:32:45.506Z,102212.03
2023-02-19T13:36:31.631Z,102208.52
2023-02-19T13:40:01.053Z,102229.06
2023-02-19T13:43:35.825Z,102225.19
2023-02-19T13:47:05.078Z,102241.82
2023-02-19T13:50:34.336Z,102245.66
2023-02-19T13:53:59.936Z,102238.33
2023-02-19T13:57:32.762Z,102212.42
2023-02-19T14:00:59.690Z,102236.28
2023-02-19T14:04:31.343Z,102248.94
2023-02-19T14:08:09.163Z,102240.25
2023-02-19T14:11:38.724Z,102207.88
2023-02-19T14:15:10.250Z,102196.38
2023-02-19T14:18:34.613Z,102198.50
2023-02-19T14:22:18.658Z,102198.73
2023-02-19T14:25:47.978Z,102189.30
2023-02-19T14:29:15.665Z,102191.16
2023-02-19T14:32:50.951Z,102200.13
2023-02-19T14:36:19.832Z,102208.67
2023-02-19T14:39:55.481Z,102200.45
2023-02-19T14:43:11.282Z,102205.27
2023-02-19T14:46:43.442Z,102201.13
2023-02-19T14:50:34.144Z,102203.90
2023-02-19T14:54:03.452Z,102189.24
2023-02-19T14:57:32.970Z,102193.11
2023-02-19T15:01:04.808Z,102196.41
2023-02-19T15:04:34.075Z,102195.01
2023-02-19T15:08:06.516Z,102189.13
2023-02-19T15:11:35.730Z,102187.19
2023-02-19T15:15:05.378Z,102179.77
2023-02-19T15:18:34.492Z,102172.27
2023-02-19T15:22:06.696Z,102172.04
2023-02-19T15:25:35.182Z,102170.09
2023-02-19T15:29:22.478Z,102179.34
2023-02-19T15:32:51.751Z,102188.61
2023-02-19T15:36:20.869Z,102183.44
2023-02-19T15:39:50.104Z,102182.70
2023-02-19T15:43:19.433Z,102194.61
2023-02-19T15:46:48.864Z,102206.05
2023-02-19T15:50:08.425Z,102223.55
2023-02-19T15:53:43.521Z,102226.80
2023-02-19T15:57:19.385Z,102226.86
2023-02-19T16:00:37.289Z,102231.88
2023-02-19T16:04:06.638Z,102225.79
2023-02-19T16:07:38.008Z,102229.88
2023-02-19T16:11:07.051Z,102232.81
2023-02-19T16:14:36.371Z,102230.06
2023-02-19T16:18:03.285Z,102224.52
2023-02-19T16:21:32.240Z,102246.85
2023-02-19T16:25:04.772Z,102244.26
2023-02-19T16:28:36.581Z,102233.35
2023-02-19T16:32:12.263Z,102244.98
2023-02-19T16:35:44.422Z,102261.25
2023-02-19T16:39:16.090Z,102254.27
2023-02-19T16:42:50.578Z,102238.36
2023-02-19T16:46:19.417Z,102227.63
2023-02-19T16:49:48.463Z,102245.08
2023-02-19T16:53:17.835Z,102254.93
2023-02-19T16:56:46.808Z,102249.48
2023-02-19T17:00:15.523Z,102237.30
2023-02-19T17:03:44.947Z,102237.73
2023-02-19T17:07:13.742Z,102247.45
2023-02-19T17:10:42.537Z,102243.60
2023-02-19T17:14:03.391Z,102234.17
2023-02-19T17:17:32.658Z,102214.91
2023-02-19T17:21:01.939Z,102212.16
2023-02-19T17:24:31.142Z,102219.66
2023-02-19T17:27:59.959Z,102204.40
2023-02-19T17:31:16.783Z,102199.12
2023-02-19T17:34:45.698Z,102175.44
2023-02-19T17:38:15.127Z,102159.58
2023-02-19T17:41:44.214Z,102179.23
2023-02-19T17:45:13.085Z,102204.83
2023-02-19T17:48:42.059Z,102208.21
2023-02-19T17:52:11.082Z,102212.80
2023-02-19T17:55:40.919Z,102218.31
2023-02-19T17:59:17.986Z,102234.42
2023-02-19T18:02:46.987Z,102247.27
2023-02-19T18:06:15.634Z,102266.11
2023-02-19T18:09:50.217Z,102256.06
2023-02-19T18:13:18.984Z,102242.16
2023-02-19T18:16:49.852Z,102244.82
2023-02-19T18:20:18.995Z,102259.59
2023-02-19T18:23:48.128Z,102262.36
2023-02-19T18:27:09.832Z,102257.86
2023-02-19T18:30:39.042Z,102255.55
2023-02-19T18:34:08.224Z,102232.41
2023-02-19T18:37:37.500Z,102215.60
2023-02-19T18:41:06.814Z,102226.21
2023-02-19T18:44:35.867Z,102241.52
2023-02-19T18:48:04.974Z,102247.85
2023-02-19T18:51:34.421Z,102255.08
2023-02-19T18:55:05.173Z,102240.27
2023-02-19T18:58:34.186Z,102218.83
2023-02-19T19:02:02.641Z,102216.67
2023-02-19T19:05:31.783Z,102210.33
2023-02-19T19:09:00.728Z,102207.30
2023-02-19T19:12:29.835Z,102231.60
2023-02-19T19:15:59.108Z,102244.23
2023-02-19T19:19:28.326Z,102215.73
2023-02-19T19:22:56.946Z,102193.30
2023-02-19T19:26:26.207Z,102189.75
2023-02-19T19:29:54.943Z,102192.77
2023-02-19T19:33:23.725Z,102202.14
2023-02-19T19:36:52.678Z,102199.69
2023-02-19T19:40:14.586Z,102207.69
2023-02-19T19:43:43.381Z,102202.83
2023-02-19T19:47:12.385Z,102192.01
2023-02-19T19:50:34.018Z,102174.73
2023-02-19T19:54:05.803Z,102151.51
2023-02-19T19:57:34.903Z,102154.27
2023-02-19T20:01:04.460Z,102149.23
2023-02-19T20:04:33.827Z,102184.92
2023-02-19T20:08:03.172Z,102180.17
2023-02-19T20:11:25.329Z,102159.57
2023-02-19T20:14:54.154Z,102140.13
2023-02-19T20:18:15.468Z,102117.84
2023-02-19T20:21:44.213Z,102103.39
2023-02-19T20:25:13.684Z,102085.92
2023-02-19T20:28:31.867Z,102066.41
2023-02-19T20:32:01.040Z,102077.56
2023-02-19T20:36:08.365Z,102101.52
2023-02-19T20:39:19.576Z,102144.10
2023-02-19T20:42:48.850Z,102149.95
2023-02-19T20:46:18.076Z,102155.11
2023-02-19T20:49:47.133Z,102182.87
2023-02-19T20:53:18.958Z,102197.43
2023-02-19T20:56:47.806Z,102216.45
2023-02-19T21:00:17.225Z,102210.74
2023-02-19T21:03:46.430Z,102199.45
2023-02-19T21:07:15.385Z,102171.62
2023-02-19T21:10:43.801Z,102166.68
2023-02-19T21:14:13.304Z,102179.52
2023-02-19T21:18:12.467Z,102192.79
2023-02-19T21:21:31.496Z,102179.21
2023-02-19T21:25:00.683Z,102176.92
2023-02-19T21:28:30.135Z,102187.58
2023-02-19T21:31:59.411Z,102182.86
2023-02-19T21:35:28.722Z,102159.92
2023-02-19T21:38:55.836Z,102134.13
2023-02-19T21:42:25.167Z,102128.68
2023-02-19T21:45:54.588Z,102139.08
2023-02-19T21:49:23.922Z,102153.59
2023-02-19T21:52:53.440Z,102152.93
2023-02-19T21:56:18.696Z,102145.39
2023-02-19T21:59:48.667Z,102128.25
2023-02-19T22:03:17.994Z,102125.06
2023-02-19T22:06:47.573Z,102127.52
2023-02-19T22:10:16.904Z,102124.80
2023-02-19T22:13:46.344Z,102110.34
2023-02-19T22:17:15.761Z,102104.00
2023-02-19T22:20:45.146Z,102099.00
2023-02-19T22:24:06.403Z,102100.34
2023-02-19T22:27:26.737Z,102110.56
2023-02-19T22:30:55.469Z,102088.09
2023-02-19T22:34:24.896Z,102071.18
2023-02-19T22:37:54.303Z,102085.29
2023-02-19T22:41:23.155Z,102076.75
2023-02-19T22:44:52.060Z,102070.43
2023-02-19T22:48:19.278Z,102086.92
2023-02-19T22:51:44.502Z,102089.87
2023-02-19T22:55:14.177Z,102099.41
2023-02-19T22:58:41.816Z,102108.79
2023-02-19T23:02:49.939Z,102096.89
2023-02-19T23:05:55.176Z,102099.52
2023-02-19T23:09:27.116Z,102091.02
2023-02-19T23:12:56.500Z,102093.64
2023-02-19T23:16:25.744Z,102081.58
2023-02-19T23:19:54.506Z,102074.88
2023-02-19T23:23:23.693Z,102062.57
2023-02-19T23:26:53.338Z,102069.66
2023-02-19T23:30:22.173Z,102080.98
2023-02-19T23:33:51.400Z,102072.70
2023-02-19T23:37:26.206Z,102056.45
2023-02-19T23:40:55.504Z,102050.14
2023-02-19T23:44:24.655Z,102049.27
2023-02-19T23:47:53.637Z,102065.17
2023-02-19T23:51:22.889Z,102068.21
2023-02-19T23:54:52.371Z,102072.87
2023-02-19T23:58:21.693Z,102059.73
